Upstream stations:
Downstream station:
SHEF ID: BRIO2 Canadian River at Bridgeport, OK
STATION TYPE:
Regulating: Stage = 15.00, Flow = 8545
STAGE RIV-FLOW
ft cfs
Ccp-Rev Ccp-Rev
(US/Central)
05/18 00:00 12.60 2190
05/18 01:00 12.59 2176
05/18 02:00 12.57 2146
05/18 03:00 12.57 2146
05/18 04:00 12.55 2117
05/18 05:00 12.54 2103
05/18 06:00 12.54 2103
05/18 07:00 13.15 3111
05/18 08:00 13.13 3073
05/18 09:00 12.98 2802
05/18 10:00 12.93 2716
05/18 11:00 12.91 2682
05/18 12:00 12.89 2648
05/18 13:00 12.87 2615
05/18 14:00 12.83 2548
05/18 15:00 12.82 2532
05/18 16:00 12.81 2516
05/18 17:00 12.80 2500
05/18 18:00 12.80 2500
05/18 19:00 12.76 2435
05/18 20:00 12.67 2295
05/18 21:00 12.63 2235
05/18 22:00 9.74 95
05/18 23:00 ---- ----